WMT5876 EKBI-LRIA
Flight info
| Callsign | WMT5876 |
|---|---|
| Flight time | 2h 13m |
| Altitude | 37000 |
| Route | RIDSI DCT TUDLO DCT NIKDA DCT BINKA DCT LENOV DCT KENIN DCT KARIL DCT TOMUC P133 ARPIG |
| Aircraft | A320/M-SDE3FGHIRWY/LB1 |
Departure
| Time | 2026-04-22 11:46 |
|---|---|
| Airport | Billund Airport (EKBI) |
Arrival
| Time | 2026-04-22 13:59 |
|---|---|
| Airport | Iaşi International Airport (LRIA) |
| Time | Latitude | Longitude | Altitude | Speed | Heading |
|---|---|---|---|---|---|
| 2026-04-22 11:20 | 55.74530 | 9.14684 | 216 ft | 0 kts | 357° |
| 2026-04-22 11:33 | 55.74526 | 9.14684 | 216 ft | 2 kts | 357° |
| 2026-04-22 11:33 | 55.74509 | 9.14686 | 216 ft | 2 kts | 358° |
| 2026-04-22 11:34 | 55.74493 | 9.14686 | 216 ft | 2 kts | 0° |
| 2026-04-22 11:34 | 55.74476 | 9.14686 | 216 ft | 2 kts | 4° |
| 2026-04-22 11:34 | 55.74460 | 9.14683 | 217 ft | 2 kts | 17° |
| 2026-04-22 11:34 | 55.74446 | 9.14668 | 217 ft | 2 kts | 79° |
| 2026-04-22 11:35 | 55.74444 | 9.14654 | 225 ft | 0 kts | 87° |
| 2026-04-22 11:38 | 55.74445 | 9.14658 | 216 ft | 1 kts | 87° |
| 2026-04-22 11:38 | 55.74446 | 9.14705 | 216 ft | 8 kts | 87° |
| 2026-04-22 11:38 | 55.74441 | 9.14952 | 216 ft | 12 kts | 124° |
| 2026-04-22 11:39 | 55.74342 | 9.14986 | 218 ft | 18 kts | 177° |
| 2026-04-22 11:39 | 55.74215 | 9.15009 | 221 ft | 17 kts | 149° |
| 2026-04-22 11:39 | 55.74202 | 9.15199 | 216 ft | 17 kts | 87° |
| 2026-04-22 11:39 | 55.74208 | 9.15418 | 219 ft | 19 kts | 87° |
| 2026-04-22 11:40 | 55.74216 | 9.15662 | 216 ft | 21 kts | 86° |
| 2026-04-22 11:40 | 55.74224 | 9.15929 | 216 ft | 23 kts | 87° |
| 2026-04-22 11:40 | 55.74233 | 9.16221 | 221 ft | 25 kts | 87° |
| 2026-04-22 11:40 | 55.74243 | 9.16538 | 216 ft | 27 kts | 86° |
| 2026-04-22 11:41 | 55.74253 | 9.16842 | 223 ft | 25 kts | 87° |
| 2026-04-22 11:41 | 55.74263 | 9.17154 | 216 ft | 27 kts | 87° |
| 2026-04-22 11:41 | 55.74273 | 9.17496 | 216 ft | 29 kts | 86° |
| 2026-04-22 11:41 | 55.74282 | 9.17789 | 216 ft | 22 kts | 86° |
| 2026-04-22 11:42 | 55.74287 | 9.17972 | 216 ft | 15 kts | 89° |
| 2026-04-22 11:42 | 55.74236 | 9.18135 | 218 ft | 17 kts | 156° |
| 2026-04-22 11:42 | 55.74129 | 9.18109 | 216 ft | 16 kts | 245° |
| 2026-04-22 11:42 | 55.74122 | 9.18044 | 216 ft | 0 kts | 265° |
| 2026-04-22 11:45 | 55.74116 | 9.17892 | 219 ft | 42 kts | 267° |
| 2026-04-22 11:45 | 55.74089 | 9.16961 | 216 ft | 105 kts | 267° |
| 2026-04-22 11:45 | 55.74041 | 9.15375 | 222 ft | 151 kts | 268° |
| 2026-04-22 11:46 | 55.73982 | 9.13524 | 860 ft | 147 kts | 268° |
| 2026-04-22 11:46 | 55.74217 | 9.11803 | 1538 ft | 148 kts | 314° |
| 2026-04-22 11:46 | 55.75130 | 9.10987 | 2158 ft | 157 kts | 352° |
| 2026-04-22 11:46 | 55.76252 | 9.11515 | 2573 ft | 185 kts | 32° |
| 2026-04-22 11:47 | 55.77312 | 9.13079 | 2953 ft | 211 kts | 38° |
| 2026-04-22 11:47 | 55.78480 | 9.14891 | 3474 ft | 235 kts | 39° |
| 2026-04-22 11:47 | 55.79762 | 9.16893 | 4097 ft | 252 kts | 39° |
| 2026-04-22 11:47 | 55.81093 | 9.18971 | 5083 ft | 257 kts | 39° |
| 2026-04-22 11:48 | 55.82434 | 9.21056 | 6014 ft | 260 kts | 39° |
| 2026-04-22 11:48 | 55.83805 | 9.23177 | 6952 ft | 263 kts | 39° |
| 2026-04-22 11:48 | 55.85195 | 9.25394 | 7852 ft | 268 kts | 45° |
| 2026-04-22 11:48 | 55.86122 | 9.28253 | 8684 ft | 277 kts | 71° |
| 2026-04-22 11:49 | 55.86228 | 9.31739 | 9540 ft | 287 kts | 99° |
| 2026-04-22 11:49 | 55.85414 | 9.34965 | 10387 ft | 295 kts | 122° |
| 2026-04-22 11:49 | 55.84194 | 9.38022 | 10855 ft | 313 kts | 123° |
| 2026-04-22 11:49 | 55.82876 | 9.41274 | 11095 ft | 336 kts | 123° |
| 2026-04-22 11:50 | 55.81478 | 9.44705 | 11607 ft | 346 kts | 123° |
| 2026-04-22 11:50 | 55.80057 | 9.48194 | 12305 ft | 350 kts | 123° |
| 2026-04-22 11:50 | 55.78625 | 9.51713 | 13021 ft | 353 kts | 123° |
| 2026-04-22 11:50 | 55.77180 | 9.55268 | 13777 ft | 356 kts | 123° |
| 2026-04-22 11:51 | 55.75729 | 9.58842 | 14450 ft | 359 kts | 123° |
| 2026-04-22 11:51 | 55.74264 | 9.62459 | 15075 ft | 362 kts | 123° |
| 2026-04-22 11:51 | 55.72788 | 9.66104 | 15689 ft | 365 kts | 123° |
| 2026-04-22 11:51 | 55.71299 | 9.69775 | 16299 ft | 368 kts | 123° |
| 2026-04-22 11:52 | 55.69792 | 9.73488 | 16896 ft | 371 kts | 122° |
| 2026-04-22 11:52 | 55.68271 | 9.77226 | 17501 ft | 375 kts | 122° |
| 2026-04-22 11:52 | 55.66738 | 9.80986 | 18085 ft | 378 kts | 122° |
| 2026-04-22 11:52 | 55.65190 | 9.84768 | 18679 ft | 381 kts | 122° |
| 2026-04-22 11:53 | 55.63625 | 9.88576 | 19217 ft | 384 kts | 122° |
| 2026-04-22 11:53 | 55.62048 | 9.92407 | 19772 ft | 386 kts | 122° |
| 2026-04-22 11:53 | 55.60466 | 9.96249 | 20336 ft | 388 kts | 122° |
| 2026-04-22 11:53 | 55.58865 | 10.00107 | 20887 ft | 391 kts | 123° |
| 2026-04-22 11:54 | 55.57178 | 10.03894 | 21419 ft | 394 kts | 126° |
| 2026-04-22 11:54 | 55.55412 | 10.07614 | 21934 ft | 397 kts | 127° |
| 2026-04-22 11:54 | 55.53598 | 10.11317 | 22445 ft | 399 kts | 127° |
| 2026-04-22 11:54 | 55.51767 | 10.15021 | 22940 ft | 402 kts | 127° |
| 2026-04-22 11:55 | 55.49924 | 10.18763 | 23442 ft | 404 kts | 127° |
| 2026-04-22 11:55 | 55.48089 | 10.22530 | 23918 ft | 406 kts | 126° |
| 2026-04-22 11:55 | 55.46251 | 10.26334 | 24344 ft | 409 kts | 126° |
| 2026-04-22 11:55 | 55.44411 | 10.30157 | 24756 ft | 410 kts | 126° |
| 2026-04-22 11:56 | 55.42561 | 10.33997 | 25184 ft | 412 kts | 126° |
| 2026-04-22 11:56 | 55.40700 | 10.37844 | 25602 ft | 413 kts | 126° |
| 2026-04-22 11:56 | 55.39459 | 10.40404 | 25879 ft | 414 kts | 126° |
| 2026-04-22 11:56 | 55.37587 | 10.44264 | 26283 ft | 416 kts | 126° |
| 2026-04-22 11:57 | 55.35703 | 10.48146 | 26683 ft | 418 kts | 126° |
| 2026-04-22 11:57 | 55.33197 | 10.53301 | 27217 ft | 420 kts | 126° |
| 2026-04-22 11:57 | 55.31912 | 10.55939 | 27480 ft | 422 kts | 126° |
| 2026-04-22 11:57 | 55.29997 | 10.59858 | 27884 ft | 424 kts | 126° |
| 2026-04-22 11:58 | 55.28074 | 10.63791 | 28281 ft | 425 kts | 126° |
| 2026-04-22 11:58 | 55.26328 | 10.67954 | 28662 ft | 424 kts | 121° |
| 2026-04-22 11:58 | 55.24645 | 10.72223 | 29044 ft | 426 kts | 121° |
| 2026-04-22 11:58 | 55.22952 | 10.76509 | 29420 ft | 428 kts | 121° |
| 2026-04-22 11:59 | 55.21248 | 10.80814 | 29783 ft | 430 kts | 121° |
| 2026-04-22 11:59 | 55.19559 | 10.85072 | 30253 ft | 430 kts | 121° |
| 2026-04-22 11:59 | 55.17853 | 10.89356 | 30725 ft | 428 kts | 121° |
| 2026-04-22 11:59 | 55.16151 | 10.93621 | 31184 ft | 426 kts | 121° |
| 2026-04-22 12:00 | 55.14458 | 10.97862 | 31689 ft | 424 kts | 121° |
| 2026-04-22 12:00 | 55.12776 | 11.02078 | 32180 ft | 422 kts | 121° |
| 2026-04-22 12:00 | 55.11102 | 11.06268 | 32682 ft | 419 kts | 121° |
| 2026-04-22 12:00 | 55.09434 | 11.10426 | 33179 ft | 417 kts | 121° |
| 2026-04-22 12:01 | 55.07769 | 11.14562 | 33674 ft | 415 kts | 121° |
| 2026-04-22 12:01 | 55.06113 | 11.18667 | 34182 ft | 413 kts | 121° |
| 2026-04-22 12:01 | 55.04465 | 11.22748 | 34615 ft | 411 kts | 120° |
| 2026-04-22 12:01 | 55.02819 | 11.26824 | 34951 ft | 411 kts | 120° |
| 2026-04-22 12:02 | 55.01174 | 11.30896 | 35240 ft | 412 kts | 121° |
| 2026-04-22 12:02 | 54.99524 | 11.34976 | 35515 ft | 412 kts | 121° |
| 2026-04-22 12:02 | 54.97867 | 11.39069 | 35786 ft | 413 kts | 121° |
| 2026-04-22 12:02 | 54.96206 | 11.43161 | 36062 ft | 414 kts | 121° |
| 2026-04-22 12:03 | 54.94519 | 11.47313 | 36327 ft | 415 kts | 121° |
| 2026-04-22 12:03 | 54.92868 | 11.51363 | 36568 ft | 416 kts | 121° |
| 2026-04-22 12:03 | 54.91169 | 11.55521 | 36827 ft | 417 kts | 121° |
| 2026-04-22 12:03 | 54.89504 | 11.59587 | 37079 ft | 418 kts | 121° |
| 2026-04-22 12:04 | 54.87795 | 11.63756 | 37283 ft | 419 kts | 121° |
| 2026-04-22 12:04 | 54.86115 | 11.67849 | 37333 ft | 424 kts | 121° |
| 2026-04-22 12:04 | 54.82646 | 11.76279 | 37335 ft | 428 kts | 121° |
| 2026-04-22 12:05 | 54.79173 | 11.84679 | 37328 ft | 429 kts | 121° |
| 2026-04-22 12:05 | 54.75692 | 11.93082 | 37326 ft | 429 kts | 121° |
| 2026-04-22 12:06 | 54.72204 | 12.01467 | 37326 ft | 429 kts | 121° |
| 2026-04-22 12:06 | 54.68711 | 12.09849 | 37327 ft | 429 kts | 122° |
| 2026-04-22 12:07 | 54.65229 | 12.18162 | 37330 ft | 430 kts | 122° |
| 2026-04-22 12:07 | 54.61692 | 12.26560 | 37333 ft | 430 kts | 122° |
| 2026-04-22 12:08 | 54.58201 | 12.34934 | 37331 ft | 430 kts | 121° |
| 2026-04-22 12:08 | 54.54752 | 12.43353 | 37334 ft | 430 kts | 121° |
| 2026-04-22 12:09 | 54.51330 | 12.51715 | 37330 ft | 430 kts | 121° |
| 2026-04-22 12:09 | 54.47863 | 12.60104 | 37330 ft | 430 kts | 121° |
| 2026-04-22 12:10 | 54.44378 | 12.68466 | 37330 ft | 430 kts | 121° |
| 2026-04-22 12:10 | 54.40885 | 12.76826 | 37332 ft | 431 kts | 121° |
| 2026-04-22 12:11 | 54.37387 | 12.85169 | 37331 ft | 431 kts | 122° |
| 2026-04-22 12:11 | 54.33885 | 12.93518 | 37329 ft | 431 kts | 122° |
| 2026-04-22 12:12 | 54.30373 | 13.01864 | 37330 ft | 431 kts | 122° |
| 2026-04-22 12:12 | 54.26859 | 13.10172 | 37329 ft | 431 kts | 122° |
| 2026-04-22 12:13 | 54.23333 | 13.18473 | 37326 ft | 431 kts | 122° |
| 2026-04-22 12:13 | 54.19799 | 13.26758 | 37317 ft | 431 kts | 122° |
| 2026-04-22 12:14 | 54.16263 | 13.35028 | 37324 ft | 431 kts | 122° |
| 2026-04-22 12:14 | 54.12723 | 13.43311 | 37324 ft | 431 kts | 122° |
| 2026-04-22 12:15 | 54.09175 | 13.51570 | 37322 ft | 431 kts | 122° |
| 2026-04-22 12:15 | 54.05626 | 13.59803 | 37318 ft | 431 kts | 122° |
| 2026-04-22 12:16 | 54.02063 | 13.68027 | 37308 ft | 431 kts | 122° |
| 2026-04-22 12:16 | 53.98494 | 13.76237 | 37304 ft | 432 kts | 122° |
| 2026-04-22 12:17 | 53.94918 | 13.84443 | 37303 ft | 432 kts | 122° |
| 2026-04-22 12:17 | 53.91337 | 13.92622 | 37302 ft | 432 kts | 122° |
| 2026-04-22 12:18 | 53.87753 | 14.00799 | 37299 ft | 431 kts | 122° |
| 2026-04-22 12:18 | 53.84168 | 14.08958 | 37298 ft | 431 kts | 122° |
| 2026-04-22 12:19 | 53.80578 | 14.17104 | 37297 ft | 432 kts | 122° |
| 2026-04-22 12:19 | 53.76975 | 14.25227 | 37298 ft | 432 kts | 122° |
| 2026-04-22 12:20 | 53.72945 | 14.32818 | 37298 ft | 435 kts | 129° |
| 2026-04-22 12:20 | 53.68736 | 14.40181 | 37301 ft | 435 kts | 129° |
| 2026-04-22 12:21 | 53.64533 | 14.47543 | 37289 ft | 436 kts | 129° |
| 2026-04-22 12:21 | 53.60319 | 14.54875 | 37286 ft | 436 kts | 129° |
| 2026-04-22 12:22 | 53.56094 | 14.62205 | 37292 ft | 436 kts | 129° |
| 2026-04-22 12:22 | 53.51871 | 14.69530 | 37296 ft | 436 kts | 129° |
| 2026-04-22 12:23 | 53.47638 | 14.76840 | 37303 ft | 436 kts | 130° |
| 2026-04-22 12:23 | 53.43396 | 14.84134 | 37297 ft | 436 kts | 130° |
| 2026-04-22 12:24 | 53.39148 | 14.91405 | 37297 ft | 437 kts | 130° |
| 2026-04-22 12:24 | 53.34892 | 14.98672 | 37295 ft | 437 kts | 130° |
| 2026-04-22 12:25 | 53.30630 | 15.05935 | 37286 ft | 437 kts | 130° |
| 2026-04-22 12:25 | 53.26373 | 15.13181 | 37281 ft | 437 kts | 130° |
| 2026-04-22 12:26 | 53.22106 | 15.20423 | 37276 ft | 437 kts | 130° |
| 2026-04-22 12:26 | 53.17837 | 15.27632 | 37272 ft | 437 kts | 130° |
| 2026-04-22 12:27 | 53.13561 | 15.34831 | 37272 ft | 437 kts | 130° |
| 2026-04-22 12:27 | 53.09279 | 15.42022 | 37269 ft | 437 kts | 130° |
| 2026-04-22 12:28 | 53.04997 | 15.49196 | 37261 ft | 437 kts | 130° |
| 2026-04-22 12:28 | 53.00705 | 15.56349 | 37260 ft | 437 kts | 130° |
| 2026-04-22 12:29 | 52.96412 | 15.63495 | 37254 ft | 437 kts | 130° |
| 2026-04-22 12:29 | 52.92116 | 15.70630 | 37249 ft | 437 kts | 130° |
| 2026-04-22 12:30 | 52.86383 | 15.80118 | 37251 ft | 437 kts | 130° |
| 2026-04-22 12:31 | 52.81369 | 15.88382 | 37255 ft | 437 kts | 130° |
| 2026-04-22 12:31 | 52.77770 | 15.94293 | 37253 ft | 438 kts | 130° |
| 2026-04-22 12:32 | 52.72714 | 16.02558 | 37244 ft | 438 kts | 130° |
| 2026-04-22 12:32 | 52.66917 | 16.12023 | 37249 ft | 438 kts | 130° |
| 2026-04-22 12:33 | 52.62602 | 16.19049 | 37243 ft | 438 kts | 130° |
| 2026-04-22 12:33 | 52.58234 | 16.26134 | 37243 ft | 438 kts | 130° |
| 2026-04-22 12:34 | 52.53882 | 16.33160 | 37239 ft | 438 kts | 130° |
| 2026-04-22 12:34 | 52.49529 | 16.40176 | 37240 ft | 439 kts | 130° |
| 2026-04-22 12:35 | 52.45167 | 16.47183 | 37239 ft | 439 kts | 131° |
| 2026-04-22 12:35 | 52.40792 | 16.54187 | 37240 ft | 439 kts | 131° |
| 2026-04-22 12:36 | 52.36416 | 16.61194 | 37242 ft | 440 kts | 131° |
| 2026-04-22 12:36 | 52.32035 | 16.68170 | 37237 ft | 440 kts | 131° |
| 2026-04-22 12:37 | 52.27638 | 16.75131 | 37236 ft | 440 kts | 131° |
| 2026-04-22 12:37 | 52.23271 | 16.82045 | 37236 ft | 440 kts | 131° |
| 2026-04-22 12:38 | 52.18880 | 16.89001 | 37237 ft | 440 kts | 131° |
| 2026-04-22 12:38 | 52.14475 | 16.95937 | 37234 ft | 441 kts | 131° |
| 2026-04-22 12:39 | 52.07818 | 17.06371 | 37235 ft | 441 kts | 131° |
| 2026-04-22 12:40 | 52.03422 | 17.13247 | 37235 ft | 442 kts | 131° |
| 2026-04-22 12:40 | 51.98984 | 17.20168 | 37236 ft | 442 kts | 131° |
| 2026-04-22 12:41 | 51.94504 | 17.27121 | 37242 ft | 443 kts | 131° |
| 2026-04-22 12:41 | 51.90080 | 17.33985 | 37241 ft | 443 kts | 131° |
| 2026-04-22 12:42 | 51.85613 | 17.40892 | 37239 ft | 443 kts | 131° |
| 2026-04-22 12:42 | 51.81149 | 17.47774 | 37241 ft | 443 kts | 131° |
| 2026-04-22 12:43 | 51.76678 | 17.54639 | 37235 ft | 443 kts | 131° |
| 2026-04-22 12:43 | 51.72192 | 17.61496 | 37234 ft | 444 kts | 132° |
| 2026-04-22 12:44 | 51.67713 | 17.68338 | 37234 ft | 444 kts | 131° |
| 2026-04-22 12:44 | 51.63225 | 17.75193 | 37236 ft | 444 kts | 132° |
| 2026-04-22 12:45 | 51.58731 | 17.82013 | 37235 ft | 445 kts | 132° |
| 2026-04-22 12:45 | 51.54250 | 17.88792 | 37233 ft | 445 kts | 132° |
| 2026-04-22 12:46 | 51.49740 | 17.95612 | 37231 ft | 445 kts | 132° |
| 2026-04-22 12:46 | 51.45223 | 18.02416 | 37234 ft | 445 kts | 132° |
| 2026-04-22 12:47 | 51.40693 | 18.09213 | 37234 ft | 445 kts | 132° |
| 2026-04-22 12:47 | 51.36172 | 18.15989 | 37231 ft | 446 kts | 132° |
| 2026-04-22 12:48 | 51.31637 | 18.22752 | 37227 ft | 446 kts | 132° |
| 2026-04-22 12:48 | 51.27093 | 18.29514 | 37225 ft | 446 kts | 132° |
| 2026-04-22 12:49 | 51.22540 | 18.36259 | 37226 ft | 446 kts | 133° |
| 2026-04-22 12:49 | 51.18020 | 18.42949 | 37225 ft | 446 kts | 133° |
| 2026-04-22 12:50 | 51.13467 | 18.49684 | 37223 ft | 447 kts | 133° |
| 2026-04-22 12:50 | 51.08906 | 18.56409 | 37221 ft | 447 kts | 133° |
| 2026-04-22 12:51 | 51.04336 | 18.63116 | 37213 ft | 447 kts | 133° |
| 2026-04-22 12:51 | 50.99761 | 18.69804 | 37210 ft | 447 kts | 133° |
| 2026-04-22 12:52 | 50.95173 | 18.76496 | 37215 ft | 448 kts | 133° |
| 2026-04-22 12:52 | 50.90585 | 18.83185 | 37217 ft | 448 kts | 133° |
| 2026-04-22 12:53 | 50.85986 | 18.89857 | 37222 ft | 448 kts | 133° |
| 2026-04-22 12:53 | 50.81378 | 18.96516 | 37215 ft | 449 kts | 133° |
| 2026-04-22 12:54 | 50.76760 | 19.03180 | 37212 ft | 449 kts | 133° |
| 2026-04-22 12:54 | 50.72176 | 19.09793 | 37213 ft | 449 kts | 133° |
| 2026-04-22 12:55 | 50.67548 | 19.16439 | 37213 ft | 450 kts | 133° |
| 2026-04-22 12:55 | 50.62906 | 19.23077 | 37207 ft | 450 kts | 134° |
| 2026-04-22 12:56 | 50.58262 | 19.29690 | 37207 ft | 450 kts | 134° |
| 2026-04-22 12:56 | 50.53657 | 19.36249 | 37207 ft | 450 kts | 134° |
| 2026-04-22 12:57 | 50.49014 | 19.42848 | 37203 ft | 450 kts | 134° |
| 2026-04-22 12:57 | 50.44367 | 19.49426 | 37193 ft | 450 kts | 134° |
| 2026-04-22 12:58 | 50.39716 | 19.56000 | 37184 ft | 450 kts | 134° |
| 2026-04-22 12:58 | 50.35058 | 19.62561 | 37180 ft | 451 kts | 134° |
| 2026-04-22 12:59 | 50.30376 | 19.69120 | 37177 ft | 451 kts | 134° |
| 2026-04-22 12:59 | 50.25695 | 19.75675 | 37179 ft | 452 kts | 134° |
| 2026-04-22 13:00 | 50.21005 | 19.82218 | 37180 ft | 452 kts | 134° |
| 2026-04-22 13:00 | 50.16311 | 19.88758 | 37182 ft | 452 kts | 134° |
| 2026-04-22 13:01 | 50.11644 | 19.95248 | 37181 ft | 452 kts | 134° |
| 2026-04-22 13:01 | 50.06941 | 20.01762 | 37179 ft | 452 kts | 135° |
| 2026-04-22 13:02 | 50.02222 | 20.08272 | 37170 ft | 453 kts | 135° |
| 2026-04-22 13:02 | 49.97516 | 20.14765 | 37161 ft | 453 kts | 135° |
| 2026-04-22 13:03 | 49.92792 | 20.21256 | 37156 ft | 453 kts | 135° |
| 2026-04-22 13:03 | 49.88069 | 20.27721 | 37146 ft | 453 kts | 135° |
| 2026-04-22 13:04 | 49.83340 | 20.34183 | 37135 ft | 453 kts | 135° |
| 2026-04-22 13:04 | 49.78606 | 20.40631 | 37136 ft | 453 kts | 135° |
| 2026-04-22 13:05 | 49.73868 | 20.47065 | 37132 ft | 454 kts | 135° |
| 2026-04-22 13:05 | 49.69116 | 20.53493 | 37128 ft | 454 kts | 135° |
| 2026-04-22 13:06 | 49.64361 | 20.59910 | 37127 ft | 454 kts | 135° |
| 2026-04-22 13:06 | 49.59603 | 20.66327 | 37123 ft | 454 kts | 135° |
| 2026-04-22 13:07 | 49.54835 | 20.72739 | 37122 ft | 455 kts | 135° |
| 2026-04-22 13:07 | 49.50061 | 20.79135 | 37125 ft | 455 kts | 135° |
| 2026-04-22 13:08 | 49.45279 | 20.85526 | 37123 ft | 456 kts | 136° |
| 2026-04-22 13:08 | 49.40488 | 20.91906 | 37124 ft | 456 kts | 136° |
| 2026-04-22 13:09 | 49.35686 | 20.98287 | 37124 ft | 456 kts | 136° |
| 2026-04-22 13:09 | 49.30544 | 21.04020 | 37126 ft | 460 kts | 145° |
| 2026-04-22 13:10 | 49.25156 | 21.09190 | 37122 ft | 460 kts | 145° |
| 2026-04-22 13:10 | 49.19723 | 21.14382 | 37121 ft | 460 kts | 145° |
| 2026-04-22 13:11 | 49.14292 | 21.19568 | 37122 ft | 461 kts | 145° |
| 2026-04-22 13:11 | 49.09762 | 21.23891 | 37121 ft | 461 kts | 145° |
| 2026-04-22 13:12 | 49.03396 | 21.29933 | 37120 ft | 461 kts | 145° |
| 2026-04-22 13:12 | 48.98867 | 21.34220 | 37122 ft | 461 kts | 146° |
| 2026-04-22 13:13 | 48.93403 | 21.39380 | 37123 ft | 462 kts | 146° |
| 2026-04-22 13:13 | 48.87936 | 21.44539 | 37129 ft | 462 kts | 146° |
| 2026-04-22 13:14 | 48.82470 | 21.49689 | 37121 ft | 462 kts | 146° |
| 2026-04-22 13:14 | 48.77005 | 21.54827 | 37122 ft | 462 kts | 146° |
| 2026-04-22 13:15 | 48.71524 | 21.59958 | 37120 ft | 463 kts | 146° |
| 2026-04-22 13:15 | 48.66077 | 21.65040 | 37117 ft | 463 kts | 146° |
| 2026-04-22 13:16 | 48.60583 | 21.70151 | 37113 ft | 463 kts | 146° |
| 2026-04-22 13:16 | 48.55087 | 21.75254 | 37109 ft | 463 kts | 146° |
| 2026-04-22 13:17 | 48.49594 | 21.80347 | 37109 ft | 464 kts | 146° |
| 2026-04-22 13:17 | 48.44088 | 21.85434 | 37110 ft | 464 kts | 147° |
| 2026-04-22 13:18 | 48.38572 | 21.90506 | 37107 ft | 464 kts | 147° |
| 2026-04-22 13:18 | 48.33053 | 21.95571 | 37110 ft | 465 kts | 147° |
| 2026-04-22 13:19 | 48.27532 | 22.00640 | 37106 ft | 465 kts | 147° |
| 2026-04-22 13:19 | 48.22008 | 22.05693 | 37108 ft | 465 kts | 147° |
| 2026-04-22 13:20 | 48.16477 | 22.10739 | 37106 ft | 465 kts | 147° |
| 2026-04-22 13:20 | 48.10966 | 22.15746 | 37106 ft | 466 kts | 147° |
| 2026-04-22 13:21 | 48.05424 | 22.20767 | 37105 ft | 466 kts | 147° |
| 2026-04-22 13:21 | 47.99877 | 22.25789 | 37105 ft | 466 kts | 147° |
| 2026-04-22 13:22 | 47.94334 | 22.30808 | 37106 ft | 466 kts | 148° |
| 2026-04-22 13:22 | 47.88774 | 22.35809 | 37107 ft | 466 kts | 148° |
| 2026-04-22 13:23 | 47.83568 | 22.41482 | 37103 ft | 463 kts | 131° |
| 2026-04-22 13:23 | 47.80064 | 22.49397 | 37098 ft | 458 kts | 110° |
| 2026-04-22 13:23 | 47.79118 | 22.53892 | 37094 ft | 455 kts | 99° |
| 2026-04-22 13:24 | 47.78719 | 22.58550 | 37090 ft | 452 kts | 91° |
| 2026-04-22 13:24 | 47.78286 | 22.67889 | 37087 ft | 453 kts | 92° |
| 2026-04-22 13:25 | 47.77829 | 22.77247 | 37088 ft | 454 kts | 92° |
| 2026-04-22 13:25 | 47.77364 | 22.86566 | 37091 ft | 455 kts | 92° |
| 2026-04-22 13:26 | 47.76896 | 22.95950 | 37096 ft | 455 kts | 92° |
| 2026-04-22 13:26 | 47.76422 | 23.05336 | 37100 ft | 455 kts | 92° |
| 2026-04-22 13:27 | 47.75933 | 23.14748 | 37100 ft | 455 kts | 92° |
| 2026-04-22 13:27 | 47.75437 | 23.24067 | 37103 ft | 456 kts | 92° |
| 2026-04-22 13:28 | 47.74934 | 23.33455 | 37103 ft | 456 kts | 92° |
| 2026-04-22 13:28 | 47.74427 | 23.42847 | 37105 ft | 456 kts | 93° |
| 2026-04-22 13:29 | 47.73908 | 23.52240 | 37104 ft | 456 kts | 93° |
| 2026-04-22 13:29 | 47.73383 | 23.61636 | 37102 ft | 456 kts | 93° |
| 2026-04-22 13:30 | 47.72850 | 23.71048 | 37101 ft | 456 kts | 93° |
| 2026-04-22 13:30 | 47.72314 | 23.80440 | 37099 ft | 456 kts | 93° |
| 2026-04-22 13:31 | 47.71766 | 23.89837 | 37096 ft | 456 kts | 93° |
| 2026-04-22 13:31 | 47.71209 | 23.99183 | 37095 ft | 456 kts | 93° |
| 2026-04-22 13:32 | 47.70646 | 24.08570 | 37097 ft | 457 kts | 93° |
| 2026-04-22 13:32 | 47.70075 | 24.17967 | 37097 ft | 457 kts | 93° |
| 2026-04-22 13:33 | 47.69494 | 24.27352 | 37095 ft | 457 kts | 93° |
| 2026-04-22 13:33 | 47.68904 | 24.36808 | 37096 ft | 457 kts | 93° |
| 2026-04-22 13:34 | 47.68313 | 24.46150 | 37096 ft | 457 kts | 94° |
| 2026-04-22 13:34 | 47.67708 | 24.55545 | 37100 ft | 458 kts | 93° |
| 2026-04-22 13:35 | 47.67100 | 24.64958 | 37104 ft | 458 kts | 94° |
| 2026-04-22 13:35 | 47.66486 | 24.74359 | 37100 ft | 458 kts | 94° |
| 2026-04-22 13:36 | 47.65856 | 24.83777 | 37098 ft | 458 kts | 94° |
| 2026-04-22 13:36 | 47.65221 | 24.93187 | 37098 ft | 459 kts | 94° |
| 2026-04-22 13:36 | 47.64900 | 24.97902 | 36931 ft | 459 kts | 94° |
| 2026-04-22 13:37 | 47.64579 | 25.02618 | 36675 ft | 458 kts | 94° |
| 2026-04-22 13:37 | 47.64255 | 25.07330 | 36222 ft | 458 kts | 94° |
| 2026-04-22 13:37 | 47.63928 | 25.12051 | 35456 ft | 462 kts | 94° |
| 2026-04-22 13:37 | 47.63594 | 25.16826 | 34625 ft | 467 kts | 94° |
| 2026-04-22 13:38 | 47.63254 | 25.21645 | 33699 ft | 473 kts | 94° |
| 2026-04-22 13:38 | 47.62568 | 25.31284 | 32254 ft | 469 kts | 94° |
| 2026-04-22 13:38 | 47.62224 | 25.36077 | 31595 ft | 466 kts | 94° |
| 2026-04-22 13:39 | 47.61884 | 25.40808 | 30902 ft | 463 kts | 94° |
| 2026-04-22 13:39 | 47.61541 | 25.45543 | 30258 ft | 459 kts | 94° |
| 2026-04-22 13:39 | 47.61202 | 25.50172 | 29486 ft | 444 kts | 94° |
| 2026-04-22 13:39 | 47.60870 | 25.54622 | 28946 ft | 424 kts | 94° |
| 2026-04-22 13:40 | 47.60550 | 25.58904 | 28398 ft | 416 kts | 94° |
| 2026-04-22 13:40 | 47.60236 | 25.63149 | 27847 ft | 412 kts | 94° |
| 2026-04-22 13:40 | 47.59927 | 25.67360 | 27301 ft | 408 kts | 94° |
| 2026-04-22 13:40 | 47.59620 | 25.71516 | 26770 ft | 404 kts | 94° |
| 2026-04-22 13:41 | 47.59314 | 25.75644 | 26243 ft | 401 kts | 94° |
| 2026-04-22 13:41 | 47.59007 | 25.79729 | 25727 ft | 398 kts | 94° |
| 2026-04-22 13:41 | 47.58699 | 25.83789 | 25221 ft | 395 kts | 94° |
| 2026-04-22 13:41 | 47.58389 | 25.87825 | 24743 ft | 392 kts | 94° |
| 2026-04-22 13:42 | 47.58079 | 25.91827 | 24241 ft | 390 kts | 94° |
| 2026-04-22 13:42 | 47.57772 | 25.95801 | 23774 ft | 387 kts | 94° |
| 2026-04-22 13:42 | 47.57467 | 25.99760 | 23260 ft | 385 kts | 94° |
| 2026-04-22 13:42 | 47.57164 | 26.03675 | 22798 ft | 380 kts | 94° |
| 2026-04-22 13:43 | 47.56862 | 26.07549 | 22346 ft | 376 kts | 94° |
| 2026-04-22 13:43 | 47.56561 | 26.11377 | 21903 ft | 372 kts | 94° |
| 2026-04-22 13:43 | 47.56263 | 26.15162 | 21457 ft | 368 kts | 94° |
| 2026-04-22 13:43 | 47.55969 | 26.18911 | 20993 ft | 365 kts | 94° |
| 2026-04-22 13:44 | 47.55674 | 26.22627 | 20539 ft | 361 kts | 94° |
| 2026-04-22 13:44 | 47.55387 | 26.26259 | 20072 ft | 358 kts | 94° |
| 2026-04-22 13:44 | 47.55094 | 26.29962 | 19598 ft | 356 kts | 94° |
| 2026-04-22 13:44 | 47.54808 | 26.33543 | 19123 ft | 354 kts | 94° |
| 2026-04-22 13:45 | 47.54518 | 26.37144 | 18651 ft | 352 kts | 94° |
| 2026-04-22 13:45 | 47.54228 | 26.40733 | 18137 ft | 351 kts | 94° |
| 2026-04-22 13:45 | 47.53940 | 26.44302 | 17638 ft | 348 kts | 94° |
| 2026-04-22 13:45 | 47.53649 | 26.47840 | 17147 ft | 345 kts | 94° |
| 2026-04-22 13:46 | 47.53360 | 26.51342 | 16670 ft | 342 kts | 94° |
| 2026-04-22 13:46 | 47.53071 | 26.54829 | 16189 ft | 340 kts | 94° |
| 2026-04-22 13:46 | 47.52785 | 26.58292 | 15709 ft | 338 kts | 94° |
| 2026-04-22 13:46 | 47.52504 | 26.61726 | 15235 ft | 336 kts | 94° |
| 2026-04-22 13:47 | 47.52222 | 26.65162 | 14758 ft | 335 kts | 94° |
| 2026-04-22 13:47 | 47.51935 | 26.68581 | 14287 ft | 334 kts | 95° |
| 2026-04-22 13:47 | 47.51643 | 26.71992 | 13798 ft | 334 kts | 95° |
| 2026-04-22 13:47 | 47.51355 | 26.75397 | 13285 ft | 333 kts | 95° |
| 2026-04-22 13:48 | 47.51070 | 26.78775 | 12809 ft | 331 kts | 95° |
| 2026-04-22 13:48 | 47.50648 | 26.82131 | 12335 ft | 331 kts | 104° |
| 2026-04-22 13:48 | 47.49805 | 26.85297 | 11864 ft | 332 kts | 115° |
| 2026-04-22 13:48 | 47.48719 | 26.88311 | 11389 ft | 331 kts | 116° |
| 2026-04-22 13:49 | 47.47650 | 26.91271 | 10938 ft | 331 kts | 116° |
| 2026-04-22 13:49 | 47.46571 | 26.94266 | 10495 ft | 330 kts | 116° |
| 2026-04-22 13:49 | 47.45509 | 26.97217 | 10352 ft | 319 kts | 116° |
| 2026-04-22 13:49 | 47.44812 | 26.99150 | 10268 ft | 312 kts | 116° |
| 2026-04-22 13:50 | 47.43806 | 27.01941 | 10118 ft | 304 kts | 116° |
| 2026-04-22 13:50 | 47.42509 | 27.05543 | 9896 ft | 298 kts | 116° |
| 2026-04-22 13:50 | 47.41842 | 27.07394 | 9483 ft | 304 kts | 116° |
| 2026-04-22 13:50 | 47.40871 | 27.10085 | 9244 ft | 299 kts | 116° |
| 2026-04-22 13:51 | 47.39881 | 27.12827 | 8895 ft | 297 kts | 116° |
| 2026-04-22 13:51 | 47.38918 | 27.15492 | 8362 ft | 293 kts | 116° |
| 2026-04-22 13:51 | 47.37972 | 27.18098 | 7754 ft | 290 kts | 116° |
| 2026-04-22 13:51 | 47.37014 | 27.20738 | 7157 ft | 287 kts | 116° |
| 2026-04-22 13:52 | 47.36075 | 27.23322 | 6574 ft | 284 kts | 116° |
| 2026-04-22 13:52 | 47.35148 | 27.25872 | 5979 ft | 281 kts | 116° |
| 2026-04-22 13:52 | 47.34246 | 27.28405 | 5406 ft | 276 kts | 111° |
| 2026-04-22 13:52 | 47.33709 | 27.31086 | 4823 ft | 271 kts | 95° |
| 2026-04-22 13:53 | 47.33665 | 27.33761 | 4576 ft | 252 kts | 84° |
| 2026-04-22 13:53 | 47.33740 | 27.36261 | 4448 ft | 235 kts | 85° |
| 2026-04-22 13:53 | 47.33795 | 27.38577 | 4343 ft | 218 kts | 85° |
| 2026-04-22 13:53 | 47.33846 | 27.40728 | 4249 ft | 203 kts | 84° |
| 2026-04-22 13:54 | 47.33895 | 27.42749 | 4161 ft | 193 kts | 84° |
| 2026-04-22 13:54 | 47.33944 | 27.44700 | 4101 ft | 189 kts | 84° |
| 2026-04-22 13:54 | 47.33840 | 27.46641 | 3996 ft | 193 kts | 103° |
| 2026-04-22 13:54 | 47.33184 | 27.48368 | 3793 ft | 196 kts | 130° |
| 2026-04-22 13:55 | 47.32082 | 27.49554 | 3558 ft | 197 kts | 147° |
| 2026-04-22 13:55 | 47.30906 | 27.50601 | 3288 ft | 197 kts | 147° |
| 2026-04-22 13:55 | 47.29751 | 27.51632 | 3019 ft | 196 kts | 147° |
| 2026-04-22 13:55 | 47.28583 | 27.52675 | 2752 ft | 196 kts | 147° |
| 2026-04-22 13:56 | 47.27438 | 27.53697 | 2478 ft | 188 kts | 147° |
| 2026-04-22 13:56 | 47.26378 | 27.54643 | 2231 ft | 169 kts | 146° |
| 2026-04-22 13:56 | 47.25421 | 27.55497 | 2019 ft | 155 kts | 147° |
| 2026-04-22 13:56 | 47.24518 | 27.56302 | 1807 ft | 150 kts | 146° |
| 2026-04-22 13:57 | 47.23633 | 27.57093 | 1598 ft | 148 kts | 146° |
| 2026-04-22 13:57 | 47.22752 | 27.57878 | 1392 ft | 148 kts | 146° |
| 2026-04-22 13:57 | 47.21871 | 27.58664 | 1176 ft | 148 kts | 147° |
| 2026-04-22 13:57 | 47.20988 | 27.59450 | 959 ft | 149 kts | 148° |
| 2026-04-22 13:58 | 47.20098 | 27.60244 | 744 ft | 150 kts | 148° |
| 2026-04-22 13:58 | 47.19210 | 27.61044 | 527 ft | 150 kts | 149° |
| 2026-04-22 13:58 | 47.18338 | 27.61816 | 394 ft | 136 kts | 149° |
| 2026-04-22 13:58 | 47.17685 | 27.62397 | 363 ft | 73 kts | 149° |
| 2026-04-22 13:59 | 47.17398 | 27.62632 | 355 ft | 14 kts | 186° |
| 2026-04-22 13:59 | 47.17332 | 27.62545 | 361 ft | 11 kts | 238° |
| 2026-04-22 13:59 | 47.17298 | 27.62463 | 361 ft | 9 kts | 238° |
| 2026-04-22 13:59 | 47.17266 | 27.62371 | 365 ft | 10 kts | 256° |
| 2026-04-22 14:00 | 47.17276 | 27.62302 | 371 ft | 7 kts | 305° |
| 2026-04-22 14:00 | 47.17330 | 27.62247 | 375 ft | 16 kts | 327° |
| 2026-04-22 14:00 | 47.17420 | 27.62164 | 376 ft | 11 kts | 311° |
| 2026-04-22 14:00 | 47.17417 | 27.62073 | 376 ft | 5 kts | 266° |
| 2026-04-22 14:01 | 47.17416 | 27.62069 | 376 ft | 0 kts | 266° |